createdAt,value
2023-01-21T00:00:20.754Z,51.17
2023-01-21T00:02:47.103Z,54.80
2023-01-21T00:05:13.675Z,54.17
2023-01-21T00:07:40.062Z,59.38
2023-01-21T00:10:06.670Z,58.17
2023-01-21T00:12:33.024Z,56.35
2023-01-21T00:14:59.417Z,54.42
2023-01-21T00:17:25.829Z,55.17
2023-01-21T00:19:52.176Z,55.30
2023-01-21T00:22:18.750Z,51.78
2023-01-21T00:24:45.109Z,55.50
2023-01-21T00:27:11.598Z,59.17
2023-01-21T00:29:38.000Z,60.87
2023-01-21T00:32:04.427Z,59.67
2023-01-21T00:34:30.788Z,59.25
2023-01-21T00:36:57.140Z,57.08
2023-01-21T00:39:23.506Z,55.15
2023-01-21T00:41:49.850Z,52.97
2023-01-21T00:44:16.358Z,64.43
2023-01-21T00:46:42.762Z,60.20
2023-01-21T00:49:09.122Z,54.20
2023-01-21T00:51:35.491Z,64.78
2023-01-21T00:54:02.033Z,63.10
2023-01-21T00:56:28.410Z,65.07
2023-01-21T00:58:54.894Z,58.90
2023-01-21T01:01:22.615Z,59.42
2023-01-21T01:03:50.221Z,57.17
2023-01-21T01:06:22.095Z,57.03
2023-01-21T01:08:49.718Z,59.47
2023-01-21T01:11:17.515Z,59.22
2023-01-21T01:13:44.485Z,61.20
2023-01-21T01:16:13.606Z,61.03
2023-01-21T01:18:40.033Z,60.47
2023-01-21T01:21:10.195Z,58.60
2023-01-21T01:23:36.535Z,60.30
2023-01-21T01:26:06.201Z,61.67
2023-01-21T01:28:33.631Z,55.80
2023-01-21T01:31:00.573Z,58.33
2023-01-21T01:33:27.619Z,60.63
2023-01-21T01:35:54.118Z,54.35
2023-01-21T01:38:22.624Z,55.33
2023-01-21T01:40:50.803Z,58.50
2023-01-21T01:43:47.649Z,62.10
2023-01-21T01:46:14.115Z,64.00
2023-01-21T01:48:42.942Z,58.38
2023-01-21T01:51:09.661Z,50.65
2023-01-21T01:53:38.974Z,60.22
2023-01-21T01:56:05.720Z,62.73
2023-01-21T01:58:32.569Z,57.90
2023-01-21T02:00:59.613Z,62.35
2023-01-21T02:03:45.474Z,63.20
2023-01-21T02:06:13.983Z,66.93
2023-01-21T02:08:41.398Z,63.70
2023-01-21T02:11:12.525Z,66.22
2023-01-21T02:13:40.928Z,61.13
2023-01-21T02:16:24.490Z,67.05
2023-01-21T02:19:03.811Z,59.22
2023-01-21T02:21:45.178Z,63.83
2023-01-21T02:24:37.677Z,56.38
2023-01-21T02:27:37.451Z,62.47
2023-01-21T02:30:46.459Z,61.70
2023-01-21T02:33:30.953Z,56.30
2023-01-21T02:36:31.407Z,58.63
2023-01-21T02:39:11.093Z,53.50
2023-01-21T02:42:04.700Z,58.80
2023-01-21T02:44:38.513Z,59.97
2023-01-21T02:47:18.107Z,57.25
2023-01-21T02:49:46.816Z,54.23
2023-01-21T02:52:21.013Z,50.35
2023-01-21T02:54:50.879Z,63.67
2023-01-21T02:57:27.523Z,60.60
2023-01-21T02:59:56.791Z,56.88
2023-01-21T03:02:38.064Z,58.53
2023-01-21T03:05:25.642Z,61.67
2023-01-21T03:08:06.857Z,58.65
2023-01-21T03:10:43.722Z,54.83
2023-01-21T03:13:41.475Z,51.38
2023-01-21T03:16:29.544Z,50.70
2023-01-21T03:19:00.013Z,56.75
2023-01-21T03:21:29.827Z,49.47
2023-01-21T03:23:59.250Z,50.72
2023-01-21T03:26:38.668Z,53.00
2023-01-21T03:29:09.948Z,55.70
2023-01-21T03:31:39.853Z,51.45
2023-01-21T03:34:09.633Z,56.33
2023-01-21T03:36:48.968Z,56.45
2023-01-21T03:39:34.570Z,56.20
2023-01-21T03:42:02.064Z,52.37
2023-01-21T03:44:28.454Z,51.97
2023-01-21T03:47:17.546Z,52.53
2023-01-21T03:49:58.916Z,51.25
2023-01-21T03:52:26.820Z,58.92
2023-01-21T03:54:54.022Z,56.70
2023-01-21T03:57:20.482Z,59.15
2023-01-21T03:59:46.894Z,53.42
2023-01-21T04:02:13.355Z,53.92
2023-01-21T04:04:39.710Z,50.15
2023-01-21T04:07:06.091Z,53.77
2023-01-21T04:09:32.492Z,61.30
2023-01-21T04:12:00.356Z,58.88
2023-01-21T04:14:26.860Z,57.33
2023-01-21T04:16:53.268Z,59.42
2023-01-21T04:19:19.635Z,57.27
2023-01-21T04:21:46.007Z,62.92
2023-01-21T04:24:12.562Z,51.47
2023-01-21T04:26:38.952Z,58.95
2023-01-21T04:29:05.375Z,57.15
2023-01-21T04:31:31.734Z,52.53
2023-01-21T04:33:58.262Z,59.45
2023-01-21T04:36:24.877Z,61.38
2023-01-21T04:38:51.247Z,68.15
2023-01-21T04:41:17.636Z,67.70
2023-01-21T04:43:44.021Z,61.07
2023-01-21T04:46:10.620Z,55.50
2023-01-21T04:48:37.287Z,57.83
2023-01-21T04:51:03.806Z,55.30
2023-01-21T04:53:30.220Z,55.80
2023-01-21T04:55:56.642Z,59.30
2023-01-21T04:58:23.619Z,58.95
2023-01-21T05:00:50.096Z,61.42
2023-01-21T05:03:16.572Z,54.72
2023-01-21T05:05:42.983Z,61.13
2023-01-21T05:08:09.353Z,58.10
2023-01-21T05:10:35.769Z,59.30
2023-01-21T05:13:02.569Z,57.83
2023-01-21T05:15:29.212Z,63.05
2023-01-21T05:17:55.707Z,63.17
2023-01-21T05:20:22.336Z,64.77
2023-01-21T05:22:49.189Z,60.03
2023-01-21T05:25:16.200Z,55.83
2023-01-21T05:27:42.707Z,58.67
2023-01-21T05:30:09.767Z,63.45
2023-01-21T05:32:39.867Z,60.77
2023-01-21T05:35:06.692Z,59.20
2023-01-21T05:37:33.082Z,57.58
2023-01-21T05:39:59.450Z,55.42
2023-01-21T05:42:25.903Z,55.88
2023-01-21T05:44:52.394Z,58.63
2023-01-21T05:47:18.759Z,53.85
2023-01-21T05:49:45.164Z,63.03
2023-01-21T05:52:11.544Z,56.83
2023-01-21T05:54:38.377Z,54.85
2023-01-21T05:57:05.726Z,54.57
2023-01-21T05:59:32.147Z,57.63
2023-01-21T06:01:58.512Z,59.33
2023-01-21T06:04:30.449Z,62.13
2023-01-21T06:06:57.572Z,62.92
2023-01-21T06:09:24.088Z,55.00
2023-01-21T06:11:50.489Z,60.55
2023-01-21T06:14:16.995Z,63.95
2023-01-21T06:16:43.344Z,58.13
2023-01-21T06:19:09.817Z,61.58
2023-01-21T06:21:36.181Z,55.23
2023-01-21T06:24:02.597Z,64.47
2023-01-21T06:26:29.054Z,58.47
2023-01-21T06:28:57.127Z,61.85
2023-01-21T06:31:24.284Z,67.15
2023-01-21T06:33:50.731Z,60.57
2023-01-21T06:36:17.121Z,59.05
2023-01-21T06:38:43.559Z,65.43
2023-01-21T06:41:09.995Z,68.75
2023-01-21T06:43:36.362Z,73.40
2023-01-21T06:46:02.833Z,69.77
2023-01-21T06:48:29.401Z,65.43
2023-01-21T06:50:55.881Z,71.72
2023-01-21T06:53:22.296Z,80.60
2023-01-21T06:55:48.742Z,84.65
2023-01-21T06:58:15.227Z,74.73
2023-01-21T07:00:42.160Z,65.65
2023-01-21T07:03:08.557Z,71.13
2023-01-21T07:05:34.942Z,66.00
2023-01-21T07:08:01.313Z,72.93
2023-01-21T07:10:27.960Z,68.43
2023-01-21T07:12:54.346Z,60.05
2023-01-21T07:15:20.852Z,79.63
2023-01-21T07:17:47.292Z,78.75
2023-01-21T07:20:13.657Z,67.22
2023-01-21T07:22:40.449Z,77.73
2023-01-21T07:25:07.457Z,72.13
2023-01-21T07:27:33.877Z,71.72
2023-01-21T07:30:00.686Z,64.60
2023-01-21T07:32:27.097Z,68.18
2023-01-21T07:34:53.435Z,78.27
2023-01-21T07:37:19.797Z,68.07
2023-01-21T07:39:46.211Z,78.43
2023-01-21T07:42:12.594Z,78.00
2023-01-21T07:44:38.983Z,75.25
2023-01-21T07:47:05.362Z,69.00
2023-01-21T07:49:31.732Z,68.57
2023-01-21T07:51:58.300Z,78.95
2023-01-21T07:54:24.671Z,72.28
2023-01-21T07:56:51.004Z,68.43
2023-01-21T07:59:17.396Z,69.87
2023-01-21T08:01:44.016Z,75.30
2023-01-21T08:04:10.447Z,70.32
2023-01-21T08:06:37.922Z,70.40
2023-01-21T08:09:04.621Z,76.78
2023-01-21T08:11:30.960Z,67.63
2023-01-21T08:13:57.335Z,64.40
2023-01-21T08:16:23.741Z,68.97
2023-01-21T08:18:50.115Z,70.63
2023-01-21T08:21:16.468Z,65.90
2023-01-21T08:23:42.878Z,66.73
2023-01-21T08:26:09.250Z,70.75
2023-01-21T08:28:35.675Z,66.88
2023-01-21T08:31:08.090Z,68.18
2023-01-21T08:33:34.909Z,65.78
2023-01-21T08:36:06.796Z,65.47
2023-01-21T08:38:34.143Z,67.53
2023-01-21T08:41:00.699Z,68.05
2023-01-21T08:43:27.179Z,61.22
2023-01-21T08:45:57.141Z,62.05
2023-01-21T08:48:23.582Z,64.63
2023-01-21T08:50:50.031Z,63.50
2023-01-21T08:53:16.445Z,61.50
2023-01-21T08:55:42.800Z,56.47
2023-01-21T08:58:09.431Z,56.20
2023-01-21T09:00:35.971Z,64.83
2023-01-21T09:03:02.406Z,62.03
2023-01-21T09:05:28.833Z,61.30
2023-01-21T09:07:57.251Z,62.35
2023-01-21T09:10:43.192Z,59.58
2023-01-21T09:13:10.546Z,54.67
2023-01-21T09:15:41.860Z,59.78
2023-01-21T09:18:08.898Z,59.05
2023-01-21T09:20:35.692Z,52.50
2023-01-21T09:23:02.081Z,53.45
2023-01-21T09:25:28.545Z,55.40
2023-01-21T09:27:54.906Z,57.10
2023-01-21T09:30:21.274Z,55.03
2023-01-21T09:32:47.669Z,56.00
2023-01-21T09:35:14.088Z,52.40
2023-01-21T09:37:40.511Z,52.33
2023-01-21T09:40:08.993Z,54.95
2023-01-21T09:42:35.407Z,55.13
2023-01-21T09:45:03.867Z,49.67
2023-01-21T09:47:43.125Z,49.60
2023-01-21T09:50:17.355Z,51.17
2023-01-21T09:52:47.360Z,50.53
2023-01-21T09:55:32.225Z,53.70
2023-01-21T09:58:32.269Z,52.28
2023-01-21T10:01:01.571Z,49.22
2023-01-21T10:03:37.015Z,48.87
2023-01-21T10:06:30.738Z,54.53
2023-01-21T10:09:15.491Z,51.03
2023-01-21T10:12:03.220Z,51.17
2023-01-21T10:14:48.739Z,49.95
2023-01-21T10:17:39.960Z,40.90
2023-01-21T10:20:29.899Z,46.53
2023-01-21T10:23:01.954Z,42.97
2023-01-21T10:25:33.346Z,45.58
2023-01-21T10:28:19.962Z,47.17
2023-01-21T10:30:50.597Z,44.43
2023-01-21T10:33:28.135Z,46.65
2023-01-21T10:36:04.049Z,42.03
2023-01-21T10:38:49.148Z,44.75
2023-01-21T10:41:31.639Z,45.47
2023-01-21T10:44:05.511Z,42.93
2023-01-21T10:46:44.112Z,43.55
2023-01-21T10:49:10.416Z,43.13
2023-01-21T10:51:50.850Z,45.22
2023-01-21T10:54:22.479Z,39.67
2023-01-21T10:56:55.304Z,44.87
2023-01-21T10:59:33.014Z,40.42
2023-01-21T11:02:08.659Z,41.03
2023-01-21T11:04:37.189Z,41.00
2023-01-21T11:07:07.423Z,40.38
2023-01-21T11:09:40.949Z,44.63
2023-01-21T11:12:13.169Z,41.25
2023-01-21T11:14:39.601Z,44.00
2023-01-21T11:17:06.175Z,41.72
2023-01-21T11:19:32.763Z,40.10
2023-01-21T11:22:18.163Z,40.40
2023-01-21T11:24:46.995Z,38.47
2023-01-21T11:27:21.849Z,41.88
2023-01-21T11:29:50.208Z,36.50
2023-01-21T11:32:21.853Z,32.40
2023-01-21T11:34:51.415Z,35.07
2023-01-21T11:37:22.702Z,34.80
2023-01-21T11:39:59.103Z,31.98
2023-01-21T11:42:25.776Z,30.00
2023-01-21T11:44:56.571Z,29.50
2023-01-21T11:47:39.481Z,28.77
2023-01-21T11:50:17.477Z,30.20
2023-01-21T11:52:44.751Z,27.23
2023-01-21T11:55:18.667Z,25.98
2023-01-21T11:57:50.870Z,25.35
2023-01-21T12:00:20.883Z,26.57
2023-01-21T12:02:52.085Z,26.15
2023-01-21T12:05:30.422Z,22.60
2023-01-21T12:07:58.282Z,22.13
2023-01-21T12:10:30.140Z,20.50
2023-01-21T12:13:15.306Z,21.83
2023-01-21T12:16:10.056Z,21.25
2023-01-21T12:19:03.635Z,23.27
2023-01-21T12:22:07.718Z,19.08
2023-01-21T12:24:59.014Z,20.38
2023-01-21T12:27:44.289Z,21.60
2023-01-21T12:30:32.591Z,21.38
2023-01-21T12:33:05.136Z,23.40
2023-01-21T12:35:38.226Z,20.10
2023-01-21T12:38:17.437Z,17.85
2023-01-21T12:40:57.589Z,17.57
2023-01-21T12:43:35.105Z,19.70
2023-01-21T12:46:11.787Z,20.58
2023-01-21T12:48:47.470Z,17.65
2023-01-21T12:51:26.142Z,20.27
2023-01-21T12:54:23.411Z,17.17
2023-01-21T12:56:59.919Z,18.38
2023-01-21T12:59:42.051Z,18.17
2023-01-21T13:02:17.345Z,15.18
2023-01-21T13:04:54.676Z,14.75
2023-01-21T13:07:29.505Z,15.13
2023-01-21T13:10:09.579Z,14.02
2023-01-21T13:12:37.866Z,15.02
2023-01-21T13:15:10.432Z,13.85
2023-01-21T13:17:39.973Z,14.18
2023-01-21T13:20:15.791Z,14.10
2023-01-21T13:23:30.410Z,14.18
2023-01-21T13:26:14.052Z,12.18
2023-01-21T13:29:01.109Z,10.25
2023-01-21T13:31:33.664Z,11.25
2023-01-21T13:34:15.516Z,14.13
2023-01-21T13:36:50.750Z,12.63
2023-01-21T13:39:28.280Z,12.93
2023-01-21T13:42:23.671Z,13.63
2023-01-21T13:44:54.556Z,13.43
2023-01-21T13:47:26.966Z,13.10
2023-01-21T13:50:05.369Z,10.27
2023-01-21T13:52:39.298Z,14.13
2023-01-21T13:55:37.952Z,15.02
2023-01-21T13:58:12.906Z,10.68
2023-01-21T14:00:42.166Z,10.17
2023-01-21T14:03:27.456Z,11.77
2023-01-21T14:06:35.439Z,9.45
2023-01-21T14:09:21.294Z,10.63
2023-01-21T14:11:59.871Z,11.88
2023-01-21T14:14:29.124Z,10.63
2023-01-21T14:17:14.295Z,10.43
2023-01-21T14:20:11.604Z,10.05
2023-01-21T14:23:02.425Z,11.05
2023-01-21T14:25:44.092Z,10.68
2023-01-21T14:28:40.289Z,11.20
2023-01-21T14:31:10.577Z,11.13
2023-01-21T14:33:50.734Z,11.50
2023-01-21T14:36:36.338Z,9.38
2023-01-21T14:39:02.660Z,10.60
2023-01-21T14:42:06.885Z,10.90
2023-01-21T14:44:42.219Z,9.43
2023-01-21T14:47:17.424Z,9.73
2023-01-21T14:49:49.390Z,9.93
2023-01-21T14:52:19.013Z,10.85
2023-01-21T14:54:46.808Z,10.90
2023-01-21T14:57:25.607Z,10.82
2023-01-21T14:59:54.048Z,10.70
2023-01-21T15:02:30.918Z,11.68
2023-01-21T15:05:00.331Z,10.05
2023-01-21T15:07:35.307Z,10.70
2023-01-21T15:10:24.691Z,10.80
2023-01-21T15:12:55.632Z,11.68
2023-01-21T15:15:29.374Z,11.07
2023-01-21T15:17:57.556Z,11.07
2023-01-21T15:20:42.161Z,11.27
2023-01-21T15:23:30.983Z,13.60
2023-01-21T15:26:11.102Z,11.52
2023-01-21T15:28:46.858Z,12.98
2023-01-21T15:31:23.463Z,12.05
2023-01-21T15:33:53.566Z,11.63
2023-01-21T15:36:30.989Z,13.95
2023-01-21T15:39:02.286Z,13.80
2023-01-21T15:41:45.543Z,11.63
2023-01-21T15:44:48.795Z,12.38
2023-01-21T15:47:30.395Z,14.87
2023-01-21T15:49:59.735Z,12.13
2023-01-21T15:53:11.235Z,12.85
2023-01-21T15:55:55.846Z,12.73
2023-01-21T15:58:54.135Z,12.00
2023-01-21T16:01:39.881Z,13.30
2023-01-21T16:04:41.271Z,13.00
2023-01-21T16:07:52.856Z,13.80
2023-01-21T16:10:28.175Z,13.02
2023-01-21T16:13:16.715Z,12.73
2023-01-21T16:16:11.097Z,12.23
2023-01-21T16:18:53.076Z,14.27
2023-01-21T16:21:29.638Z,14.82
2023-01-21T16:23:59.204Z,13.27
2023-01-21T16:26:28.106Z,13.13
2023-01-21T16:28:54.892Z,13.07
2023-01-21T16:31:22.424Z,13.02
2023-01-21T16:33:50.253Z,13.85
2023-01-21T16:36:16.645Z,15.30
2023-01-21T16:38:44.855Z,14.10
2023-01-21T16:41:11.152Z,15.03
2023-01-21T16:43:59.517Z,18.08
2023-01-21T16:46:38.926Z,14.18
2023-01-21T16:49:13.979Z,14.57
2023-01-21T16:51:45.658Z,16.00
2023-01-21T16:54:23.176Z,15.83
2023-01-21T16:56:53.132Z,14.43
2023-01-21T16:59:40.756Z,15.75
2023-01-21T17:02:31.744Z,17.52
2023-01-21T17:05:00.602Z,19.63
2023-01-21T17:07:43.547Z,16.47
2023-01-21T17:10:22.088Z,17.17
2023-01-21T17:12:52.514Z,19.80
2023-01-21T17:15:31.064Z,18.73
2023-01-21T17:18:00.127Z,20.02
2023-01-21T17:20:43.801Z,18.83
2023-01-21T17:23:17.444Z,20.02
2023-01-21T17:25:45.337Z,22.15
2023-01-21T17:28:45.516Z,23.45
2023-01-21T17:31:25.500Z,25.23
2023-01-21T17:34:10.593Z,23.33
2023-01-21T17:36:39.114Z,25.30
2023-01-21T17:39:07.446Z,22.67
2023-01-21T17:41:37.534Z,24.50
2023-01-21T17:44:14.739Z,26.95
2023-01-21T17:46:46.717Z,25.87
2023-01-21T17:49:18.091Z,24.42
2023-01-21T17:51:44.916Z,27.00
2023-01-21T17:54:20.744Z,25.17
2023-01-21T17:56:58.401Z,27.92
2023-01-21T17:59:40.684Z,26.43
2023-01-21T18:02:15.185Z,25.67
2023-01-21T18:04:41.944Z,26.75
2023-01-21T18:07:22.413Z,28.77
2023-01-21T18:09:50.583Z,29.20
2023-01-21T18:12:19.424Z,26.57
2023-01-21T18:14:47.054Z,28.73
2023-01-21T18:17:18.402Z,26.70
2023-01-21T18:19:45.002Z,30.48
2023-01-21T18:22:35.948Z,28.27
2023-01-21T18:25:02.905Z,27.20
2023-01-21T18:27:29.448Z,28.65
2023-01-21T18:29:57.992Z,25.30
2023-01-21T18:32:24.436Z,29.15
2023-01-21T18:34:51.069Z,28.27
2023-01-21T18:37:19.051Z,28.20
2023-01-21T18:39:46.388Z,26.90
2023-01-21T18:42:17.567Z,28.02
2023-01-21T18:44:44.773Z,32.00
2023-01-21T18:47:13.302Z,28.73
2023-01-21T18:49:39.717Z,29.80
2023-01-21T18:52:06.155Z,33.28
2023-01-21T18:54:32.805Z,34.10
2023-01-21T18:56:59.894Z,31.17
2023-01-21T18:59:27.156Z,31.77
2023-01-21T19:01:53.749Z,35.40
2023-01-21T19:04:21.368Z,35.85
2023-01-21T19:06:50.422Z,34.00
2023-01-21T19:09:20.795Z,36.20
2023-01-21T19:11:47.667Z,37.90
2023-01-21T19:14:14.144Z,39.60
2023-01-21T19:16:42.223Z,37.45
2023-01-21T19:19:12.707Z,38.83
2023-01-21T19:21:39.879Z,38.40
2023-01-21T19:24:07.039Z,40.03
2023-01-21T19:26:34.347Z,37.03
2023-01-21T19:29:02.316Z,40.90
2023-01-21T19:31:28.886Z,44.42
2023-01-21T19:33:55.505Z,44.63
2023-01-21T19:36:23.300Z,41.38
2023-01-21T19:38:58.108Z,42.33
2023-01-21T19:41:25.157Z,47.30
2023-01-21T19:43:51.702Z,41.80
2023-01-21T19:46:18.647Z,41.45
2023-01-21T19:48:45.122Z,38.28
2023-01-21T19:51:11.649Z,40.27
2023-01-21T19:53:38.029Z,41.47
2023-01-21T19:56:05.671Z,45.15
2023-01-21T19:58:32.821Z,45.97
2023-01-21T20:00:59.266Z,43.67
2023-01-21T20:03:28.445Z,54.87
2023-01-21T20:06:04.171Z,42.85
2023-01-21T20:08:32.160Z,47.42
2023-01-21T20:10:58.523Z,47.05
2023-01-21T20:13:26.008Z,46.60
2023-01-21T20:15:52.653Z,47.77
2023-01-21T20:18:24.360Z,45.65
2023-01-21T20:20:52.088Z,50.53
2023-01-21T20:23:20.081Z,51.83
2023-01-21T20:25:49.708Z,47.72
2023-01-21T20:28:20.912Z,54.40
2023-01-21T20:30:49.221Z,46.25
2023-01-21T20:33:20.672Z,47.17
2023-01-21T20:35:52.616Z,49.17
2023-01-21T20:38:27.786Z,51.03
2023-01-21T20:40:54.164Z,50.17
2023-01-21T20:43:20.698Z,48.22
2023-01-21T20:45:48.821Z,47.83
2023-01-21T20:48:18.764Z,52.97
2023-01-21T20:50:45.851Z,50.03
2023-01-21T20:53:12.824Z,48.10
2023-01-21T20:55:39.979Z,52.35
2023-01-21T20:58:06.996Z,54.92
2023-01-21T21:00:35.325Z,49.97
2023-01-21T21:03:02.152Z,47.85
2023-01-21T21:05:28.934Z,51.23
2023-01-21T21:07:55.620Z,45.17
2023-01-21T21:10:26.189Z,46.13
2023-01-21T21:12:52.874Z,50.95
2023-01-21T21:15:20.324Z,53.95
2023-01-21T21:17:47.023Z,51.40
2023-01-21T21:20:23.060Z,47.58
2023-01-21T21:22:49.566Z,51.85
2023-01-21T21:25:22.186Z,46.95
2023-01-21T21:27:48.613Z,44.22
2023-01-21T21:30:26.160Z,42.77
2023-01-21T21:32:52.922Z,46.40
2023-01-21T21:35:28.614Z,43.78
2023-01-21T21:37:59.805Z,43.30
2023-01-21T21:40:29.260Z,46.70
2023-01-21T21:43:15.423Z,44.10
2023-01-21T21:46:02.371Z,41.70
2023-01-21T21:48:39.159Z,45.50
2023-01-21T21:51:11.938Z,41.28
2023-01-21T21:53:40.349Z,37.28
2023-01-21T21:56:09.450Z,41.13
2023-01-21T21:58:36.485Z,38.75
2023-01-21T22:01:15.307Z,39.47
2023-01-21T22:03:42.381Z,38.95
2023-01-21T22:06:09.478Z,39.05
2023-01-21T22:08:37.509Z,38.27
2023-01-21T22:11:07.266Z,36.90
2023-01-21T22:13:37.374Z,34.35
2023-01-21T22:16:04.927Z,33.13
2023-01-21T22:18:31.894Z,36.08
2023-01-21T22:21:07.610Z,33.93
2023-01-21T22:23:35.433Z,32.75
2023-01-21T22:26:03.067Z,32.28
2023-01-21T22:28:29.488Z,32.08
2023-01-21T22:31:05.394Z,31.15
2023-01-21T22:33:33.440Z,32.87
2023-01-21T22:36:07.588Z,29.20
2023-01-21T22:38:34.915Z,30.92
2023-01-21T22:41:02.001Z,30.02
2023-01-21T22:43:29.461Z,31.63
2023-01-21T22:45:56.979Z,29.63
2023-01-21T22:48:23.441Z,28.77
2023-01-21T22:50:55.658Z,30.80
2023-01-21T22:53:23.062Z,29.73
2023-01-21T22:56:07.784Z,23.92
2023-01-21T22:58:34.656Z,26.00
2023-01-21T23:01:02.021Z,25.08
2023-01-21T23:03:29.018Z,23.75
2023-01-21T23:06:03.583Z,22.83
2023-01-21T23:08:32.777Z,23.90
2023-01-21T23:11:03.872Z,25.10
2023-01-21T23:13:31.613Z,27.17
2023-01-21T23:15:58.173Z,22.73
2023-01-21T23:18:27.136Z,25.70
2023-01-21T23:20:53.655Z,24.98
2023-01-21T23:23:20.257Z,26.00
2023-01-21T23:25:46.911Z,25.70
2023-01-21T23:28:14.416Z,26.92
2023-01-21T23:30:41.530Z,26.40
2023-01-21T23:33:08.132Z,26.30
2023-01-21T23:35:35.192Z,27.27
2023-01-21T23:38:02.698Z,28.48
2023-01-21T23:40:29.088Z,32.60
2023-01-21T23:42:55.474Z,33.50
2023-01-21T23:45:21.862Z,30.67
2023-01-21T23:47:48.496Z,31.77
2023-01-21T23:50:15.482Z,32.50
2023-01-21T23:52:42.063Z,32.58
2023-01-21T23:55:10.053Z,33.17
2023-01-21T23:57:36.554Z,31.58
